Time;durP1;ratioP1;P1;durP2;ratioP2;P2;SDS_P1;SDS_P2;PMS_P1;PMS_P2;Temp;Humidity;BMP_temperature;BMP_pressure;BME280_temperature;BME280_humidity;BME280_pressure;Samples;Min_cycle;Max_cycle;Signal;HPM_P1;HPM_P2
2021/12/29 00:00:28;;;;;;;7.00;4.60;;;9.50;99.90;;;;;;5049890;28;24667;-67
2021/12/29 00:02:56;;;;;;;11.53;6.53;;;9.60;99.90;;;;;;5056557;28;20461;-67
2021/12/29 00:05:23;;;;;;;8.27;5.70;;;9.50;99.90;;;;;;5059237;28;20449;-67
2021/12/29 00:07:51;;;;;;;10.30;5.43;;;9.50;99.90;;;;;;5072708;28;20466;-67
2021/12/29 00:10:19;;;;;;;8.77;5.23;;;9.60;99.90;;;;;;5052517;28;20454;-68
2021/12/29 00:12:51;;;;;;;9.00;5.80;;;9.60;99.90;;;;;;5041283;28;20542;-67
2021/12/29 00:15:19;;;;;;;7.87;4.87;;;9.50;99.90;;;;;;5043408;28;20477;-67
2021/12/29 00:17:47;;;;;;;5.73;3.90;;;9.50;99.90;;;;;;5037927;28;20909;-67
2021/12/29 00:20:17;;;;;;;5.70;4.83;;;9.60;99.90;;;;;;5026738;28;20561;-68
2021/12/29 00:22:45;;;;;;;5.80;3.40;;;9.50;99.90;;;;;;5026760;28;21033;-68
2021/12/29 00:25:13;;;;;;;4.00;2.83;;;9.50;99.90;;;;;;5029429;28;20452;-67
2021/12/29 00:27:42;;;;;;;6.97;3.13;;;9.50;99.90;;;;;;5043705;28;20979;-70
2021/12/29 00:30:12;;;;;;;6.70;4.97;;;9.50;99.90;;;;;;5038067;28;20466;-69
2021/12/29 00:32:39;;;;;;;5.30;4.27;;;9.50;99.90;;;;;;5022576;28;21134;-68
2021/12/29 00:35:11;;;;;;;5.13;4.50;;;9.50;99.90;;;;;;5033205;28;20627;-68
2021/12/29 00:37:39;;;;;;;12.53;5.43;;;9.50;99.90;;;;;;5060966;28;20850;-69
2021/12/29 00:40:07;;;;;;;8.70;6.13;;;9.50;99.90;;;;;;5042459;28;20463;-69
2021/12/29 00:42:34;;;;;;;9.90;5.10;;;9.50;99.90;;;;;;5051456;28;20933;-68
2021/12/29 00:45:03;;;;;;;9.50;5.13;;;9.60;99.90;;;;;;5031632;28;20466;-70
2021/12/29 00:47:34;;;;;;;3.53;2.77;;;9.50;99.90;;;;;;5044166;28;20457;-68
2021/12/29 00:50:02;;;;;;;9.63;5.73;;;9.50;99.90;;;;;;5022438;28;20658;-69
2021/12/29 00:52:29;;;;;;;8.47;3.97;;;9.50;99.90;;;;;;5040549;28;20429;-68
2021/12/29 00:54:56;;;;;;;12.17;5.83;;;9.50;99.90;;;;;;5036608;28;20929;-68
2021/12/29 00:57:23;;;;;;;13.40;5.67;;;9.50;99.90;;;;;;5031519;28;20512;-68
2021/12/29 00:59:50;;;;;;;10.63;5.87;;;9.50;99.90;;;;;;5040975;28;20479;-68
2021/12/29 01:02:19;;;;;;;8.07;5.50;;;9.50;99.90;;;;;;5056950;28;20465;-68
2021/12/29 01:04:46;;;;;;;9.73;6.37;;;9.60;99.90;;;;;;5062625;28;20545;-68
2021/12/29 01:07:13;;;;;;;8.07;5.73;;;9.60;99.90;;;;;;5032325;28;20463;-68
2021/12/29 01:09:41;;;;;;;7.07;5.60;;;9.50;99.90;;;;;;5028490;28;20465;-68
2021/12/29 01:12:10;;;;;;;7.17;4.90;;;9.40;99.90;;;;;;5023686;28;20513;-68
2021/12/29 01:14:41;;;;;;;8.77;6.60;;;9.40;99.90;;;;;;5033946;28;20458;-68
2021/12/29 01:17:08;;;;;;;8.30;6.63;;;9.40;99.90;;;;;;5033975;28;20463;-68
2021/12/29 01:19:37;;;;;;;9.60;5.30;;;9.40;99.90;;;;;;5041423;28;22311;-68
2021/12/29 01:22:05;;;;;;;12.60;6.93;;;9.50;99.90;;;;;;5035828;28;20437;-68
2021/12/29 01:24:32;;;;;;;6.10;5.13;;;9.50;99.90;;;;;;5042706;28;20465;-68
2021/12/29 01:27:00;;;;;;;12.00;7.47;;;9.50;99.90;;;;;;5041723;28;20474;-68
2021/12/29 01:29:28;;;;;;;7.33;5.00;;;9.40;99.90;;;;;;5046622;28;20479;-68
2021/12/29 01:31:56;;;;;;;12.70;6.67;;;9.40;99.90;;;;;;5036695;28;20459;-68
2021/12/29 01:34:24;;;;;;;8.93;5.03;;;9.50;99.90;;;;;;5045761;28;20453;-69
2021/12/29 01:36:52;;;;;;;14.40;8.07;;;9.50;99.90;;;;;;5028999;28;20565;-68
2021/12/29 01:39:20;;;;;;;9.47;5.70;;;9.40;99.90;;;;;;5045517;28;20671;-68
2021/12/29 01:41:49;;;;;;;8.03;6.60;;;9.50;99.90;;;;;;5035722;28;20464;-68
2021/12/29 01:44:19;;;;;;;6.20;3.80;;;9.50;99.90;;;;;;5047032;28;20563;-69
2021/12/29 01:46:46;;;;;;;6.57;5.10;;;9.50;99.90;;;;;;5040513;28;20452;-68
2021/12/29 01:49:13;;;;;;;6.80;5.57;;;9.40;99.90;;;;;;5039663;28;20435;-68
2021/12/29 01:51:48;;;;;;;11.00;6.30;;;9.50;99.90;;;;;;5029278;28;21042;-68
2021/12/29 01:54:24;;;;;;;8.70;5.00;;;9.40;99.90;;;;;;5037976;28;20432;-68
2021/12/29 01:56:53;;;;;;;12.57;7.67;;;9.40;99.90;;;;;;5037125;28;20460;-69
2021/12/29 01:59:20;;;;;;;12.40;6.13;;;9.40;99.90;;;;;;5030271;28;20429;-68
2021/12/29 02:01:47;;;;;;;10.80;6.47;;;9.40;99.90;;;;;;5031932;28;20873;-69
2021/12/29 02:04:14;;;;;;;12.53;7.70;;;9.40;99.90;;;;;;5044961;28;20441;-67
2021/12/29 02:06:41;;;;;;;8.03;5.80;;;9.40;99.90;;;;;;5056589;28;20858;-67
2021/12/29 02:09:10;;;;;;;9.87;6.17;;;9.30;99.90;;;;;;5032619;28;20480;-67
2021/12/29 02:11:42;;;;;;;10.70;7.13;;;9.40;99.90;;;;;;5023846;28;20485;-67
2021/12/29 02:14:10;;;;;;;7.43;4.70;;;9.40;99.90;;;;;;5033533;28;20428;-67
2021/12/29 02:16:37;;;;;;;6.33;5.20;;;9.50;99.90;;;;;;5026107;28;20460;-67
2021/12/29 02:19:07;;;;;;;7.23;4.63;;;9.30;99.90;;;;;;5037940;28;20872;-68
2021/12/29 02:21:37;;;;;;;10.70;4.73;;;9.30;99.90;;;;;;5034335;28;21017;-69
2021/12/29 02:24:19;;;;;;;9.40;4.97;;;9.30;99.90;;;;;;5044080;28;23795;-68
2021/12/29 02:26:47;;;;;;;4.90;3.70;;;9.30;99.90;;;;;;5036833;28;20458;-67
2021/12/29 02:29:17;;;;;;;2.40;2.20;;;9.20;99.90;;;;;;5033955;28;20793;-68
2021/12/29 02:31:45;;;;;;;12.10;5.27;;;9.30;99.90;;;;;;5040441;28;20544;-68
2021/12/29 02:34:14;;;;;;;5.67;3.17;;;9.40;99.90;;;;;;5034658;28;20829;-67
2021/12/29 02:36:44;;;;;;;5.57;3.50;;;9.30;99.90;;;;;;5034368;28;21259;-67
2021/12/29 02:39:14;;;;;;;4.50;3.60;;;9.40;99.90;;;;;;5046674;28;20462;-67
2021/12/29 02:41:45;;;;;;;3.40;2.87;;;9.30;99.90;;;;;;5048062;28;20439;-68
2021/12/29 02:44:18;;;;;;;7.07;5.70;;;9.30;99.90;;;;;;5036785;28;20770;-68
2021/12/29 02:46:45;;;;;;;4.20;2.57;;;9.30;99.90;;;;;;5030796;28;20492;-68
2021/12/29 02:49:12;;;;;;;7.30;5.50;;;9.30;99.90;;;;;;5037475;28;20449;-67
2021/12/29 02:51:40;;;;;;;7.23;5.10;;;9.30;99.90;;;;;;5026947;28;20563;-68
2021/12/29 02:54:08;;;;;;;11.63;5.37;;;9.30;99.90;;;;;;5025742;28;20444;-67
2021/12/29 02:56:35;;;;;;;7.07;5.13;;;9.40;99.90;;;;;;5034123;28;20927;-70
2021/12/29 02:59:03;;;;;;;4.50;3.57;;;9.30;99.90;;;;;;5037575;28;20484;-67
2021/12/29 03:01:31;;;;;;;8.70;4.97;;;9.30;99.90;;;;;;5031109;28;20429;-67
2021/12/29 03:03:59;;;;;;;9.27;4.73;;;9.30;99.90;;;;;;5025744;28;20436;-67
2021/12/29 03:06:27;;;;;;;9.40;5.83;;;9.40;99.90;;;;;;5021534;28;20488;-67
2021/12/29 03:08:54;;;;;;;6.73;6.00;;;9.30;99.90;;;;;;5032142;28;20993;-67
2021/12/29 03:11:23;;;;;;;10.50;5.80;;;9.40;99.90;;;;;;5039415;28;20470;-67
2021/12/29 03:13:50;;;;;;;8.77;6.23;;;9.40;99.90;;;;;;5046016;28;20515;-67
2021/12/29 03:16:18;;;;;;;6.43;5.00;;;9.40;99.90;;;;;;5034069;28;20483;-67
2021/12/29 03:18:45;;;;;;;8.30;4.80;;;9.50;99.90;;;;;;5055667;28;20480;-67
2021/12/29 03:21:13;;;;;;;5.83;3.40;;;9.40;99.90;;;;;;5036262;28;20545;-67
2021/12/29 03:23:40;;;;;;;7.80;3.80;;;9.50;99.90;;;;;;5033380;28;20497;-67
2021/12/29 03:26:07;;;;;;;5.53;5.07;;;9.40;99.90;;;;;;5038999;28;20629;-68
2021/12/29 03:28:39;;;;;;;8.70;5.60;;;9.50;99.90;;;;;;5046406;28;20424;-67
2021/12/29 03:31:10;;;;;;;8.20;5.67;;;9.40;99.90;;;;;;5037631;28;20545;-67
2021/12/29 03:33:38;;;;;;;12.40;5.53;;;9.50;99.90;;;;;;5047319;28;20461;-68
2021/12/29 03:36:06;;;;;;;7.13;5.00;;;9.50;99.90;;;;;;5036904;28;20987;-67
2021/12/29 03:38:35;;;;;;;8.37;5.60;;;9.50;99.90;;;;;;5055383;28;20456;-67
2021/12/29 03:41:04;;;;;;;6.10;5.27;;;9.50;99.90;;;;;;5060859;28;20438;-67
2021/12/29 03:43:32;;;;;;;6.00;5.40;;;9.60;99.90;;;;;;5050501;28;20470;-68
2021/12/29 03:46:02;;;;;;;10.80;6.33;;;9.50;99.90;;;;;;5063234;28;20514;-68
2021/12/29 03:48:30;;;;;;;12.30;6.17;;;9.50;99.90;;;;;;5053969;28;20464;-67
2021/12/29 03:50:58;;;;;;;11.63;4.10;;;9.40;99.90;;;;;;5045999;28;21121;-67
2021/12/29 03:53:26;;;;;;;10.73;5.80;;;9.40;99.90;;;;;;5057813;28;20432;-67
2021/12/29 03:55:54;;;;;;;7.20;4.27;;;9.40;99.90;;;;;;5068273;28;21034;-67
2021/12/29 03:58:22;;;;;;;5.60;3.30;;;9.50;99.90;;;;;;5067436;28;20464;-67
2021/12/29 04:00:50;;;;;;;9.90;5.40;;;9.50;99.90;;;;;;5040958;28;20890;-67
2021/12/29 04:03:19;;;;;;;10.27;6.17;;;9.50;99.90;;;;;;5034121;28;20444;-66
2021/12/29 04:05:46;;;;;;;8.00;4.80;;;9.50;99.90;;;;;;5041035;28;21553;-67
2021/12/29 04:08:13;;;;;;;11.73;5.10;;;9.40;99.90;;;;;;5068775;28;20432;-68
2021/12/29 04:10:40;;;;;;;8.37;5.90;;;9.40;99.90;;;;;;5067247;28;21645;-68
2021/12/29 04:13:07;;;;;;;5.47;4.27;;;9.40;99.90;;;;;;5072037;28;20436;-67
2021/12/29 04:15:34;;;;;;;7.27;3.63;;;9.40;99.90;;;;;;5064417;28;20576;-67
2021/12/29 04:18:14;;;;;;;6.63;4.53;;;9.40;99.90;;;;;;5060368;28;20463;-67
2021/12/29 04:20:57;;;;;;;8.53;5.77;;;9.40;99.90;;;;;;5069015;28;20529;-68
2021/12/29 04:23:26;;;;;;;10.00;4.90;;;9.40;99.90;;;;;;5076715;28;20860;-67
2021/12/29 04:25:54;;;;;;;6.80;3.30;;;9.40;99.90;;;;;;5068633;28;20474;-68
2021/12/29 04:28:25;;;;;;;9.17;5.10;;;9.40;99.90;;;;;;5072602;28;20809;-68
2021/12/29 04:30:55;;;;;;;13.47;5.83;;;9.50;99.90;;;;;;5060279;28;20909;-68
2021/12/29 04:33:23;;;;;;;5.80;4.00;;;9.50;99.90;;;;;;5066833;28;20521;-68
2021/12/29 04:35:52;;;;;;;4.00;3.33;;;9.50;99.90;;;;;;5064980;28;20983;-68
2021/12/29 04:38:21;;;;;;;5.73;3.87;;;9.50;99.90;;;;;;5074932;28;20455;-69
2021/12/29 04:40:49;;;;;;;8.53;4.90;;;9.40;99.90;;;;;;5069000;28;20436;-68
2021/12/29 04:43:16;;;;;;;5.37;3.30;;;9.30;99.90;;;;;;5077533;28;20531;-67
2021/12/29 04:45:43;;;;;;;11.40;5.87;;;9.40;99.90;;;;;;5054707;28;20872;-68
2021/12/29 04:48:13;;;;;;;9.83;4.27;;;9.40;99.90;;;;;;5074496;28;20811;-68
2021/12/29 04:50:41;;;;;;;6.93;4.40;;;9.40;99.90;;;;;;5077796;28;20420;-68
2021/12/29 04:53:13;;;;;;;10.40;5.40;;;9.40;99.90;;;;;;5078787;28;21005;-68
2021/12/29 04:55:45;;;;;;;10.17;5.40;;;9.30;99.90;;;;;;5064155;28;20566;-68
2021/12/29 04:58:12;;;;;;;8.13;5.03;;;9.30;99.90;;;;;;5072192;28;20514;-68
2021/12/29 05:00:40;;;;;;;4.17;2.80;;;9.40;99.90;;;;;;5069047;28;20470;-68
2021/12/29 05:03:07;;;;;;;7.70;4.73;;;9.40;99.90;;;;;;5076462;28;20938;-68
2021/12/29 05:05:57;;;;;;;11.67;5.17;;;9.40;99.90;;;;;;5060848;28;20457;-68
2021/12/29 05:08:25;;;;;;;11.70;5.37;;;9.40;99.90;;;;;;5070664;28;20449;-67
2021/12/29 05:10:53;;;;;;;6.20;4.33;;;9.40;99.90;;;;;;5069501;28;21136;-68
2021/12/29 05:13:20;;;;;;;8.73;5.53;;;9.40;99.90;;;;;;5072899;28;20561;-68
2021/12/29 05:15:47;;;;;;;8.13;5.83;;;9.40;99.90;;;;;;5066130;28;21063;-67
2021/12/29 05:18:14;;;;;;;6.97;4.53;;;9.40;99.90;;;;;;5073732;28;20589;-68
2021/12/29 05:20:42;;;;;;;5.70;4.00;;;9.30;99.90;;;;;;5072722;28;20436;-68
2021/12/29 05:23:10;;;;;;;5.83;3.10;;;9.30;99.90;;;;;;5068888;28;20900;-68
2021/12/29 05:25:39;;;;;;;7.87;3.40;;;9.30;99.90;;;;;;5050975;28;20496;-68
2021/12/29 05:28:06;;;;;;;7.53;5.03;;;9.30;99.90;;;;;;5062342;28;20981;-68
2021/12/29 05:30:33;;;;;;;9.10;5.30;;;9.30;99.90;;;;;;5064303;28;21028;-69
2021/12/29 05:33:00;;;;;;;8.50;5.33;;;9.30;99.90;;;;;;5060411;28;20528;-68
2021/12/29 05:35:27;;;;;;;9.30;5.53;;;9.30;99.90;;;;;;5065616;28;20623;-68
2021/12/29 05:37:55;;;;;;;10.47;4.93;;;9.30;99.90;;;;;;5062224;28;20484;-69
2021/12/29 05:40:22;;;;;;;8.27;5.97;;;9.20;99.90;;;;;;5071526;28;20522;-68
2021/12/29 05:42:51;;;;;;;6.77;4.07;;;9.20;99.90;;;;;;5071451;28;20878;-68
2021/12/29 05:45:18;;;;;;;7.90;5.40;;;9.30;99.90;;;;;;5069705;28;20455;-67
2021/12/29 05:47:46;;;;;;;8.93;5.57;;;9.30;99.90;;;;;;5064032;28;20450;-68
2021/12/29 05:50:17;;;;;;;5.63;4.50;;;9.30;99.90;;;;;;5065875;28;22557;-68
2021/12/29 05:52:44;;;;;;;10.43;5.93;;;9.30;99.90;;;;;;5066318;28;20454;-67
2021/12/29 05:55:12;;;;;;;4.80;3.00;;;9.20;99.90;;;;;;5070270;28;20555;-68
2021/12/29 05:57:40;;;;;;;6.37;5.63;;;9.20;99.90;;;;;;5063849;28;20594;-68
2021/12/29 06:00:12;;;;;;;10.37;4.63;;;9.20;99.90;;;;;;5062124;28;20502;-68
2021/12/29 06:02:39;;;;;;;13.63;4.97;;;9.30;99.90;;;;;;5072365;28;21771;-68
2021/12/29 06:05:07;;;;;;;5.90;3.80;;;9.20;99.90;;;;;;5074226;28;20561;-68
2021/12/29 06:07:34;;;;;;;9.60;4.50;;;9.20;99.90;;;;;;5063446;28;20476;-67
2021/12/29 06:10:02;;;;;;;7.60;3.70;;;9.20;99.90;;;;;;5068325;28;20958;-68
2021/12/29 06:12:28;;;;;;;6.40;4.60;;;9.20;99.90;;;;;;5067794;28;20456;-67
2021/12/29 06:14:55;;;;;;;7.27;3.73;;;9.20;99.90;;;;;;5072064;28;20462;-68
2021/12/29 06:17:24;;;;;;;13.57;3.83;;;9.20;99.90;;;;;;5065985;28;20493;-67
2021/12/29 06:19:51;;;;;;;6.70;3.40;;;9.30;99.90;;;;;;5069458;28;21982;-69
2021/12/29 06:22:18;;;;;;;13.50;3.40;;;9.20;99.90;;;;;;5064994;28;20442;-68
2021/12/29 06:24:51;;;;;;;4.83;3.90;;;9.20;99.90;;;;;;5071269;28;21161;-68
2021/12/29 06:27:19;;;;;;;4.30;2.57;;;9.30;99.90;;;;;;5064938;28;20476;-69
2021/12/29 06:29:46;;;;;;;6.60;3.63;;;9.40;99.90;;;;;;5068898;28;20487;-69
2021/12/29 06:32:13;;;;;;;6.00;4.60;;;9.40;99.90;;;;;;5075254;28;20636;-69
2021/12/29 06:34:41;;;;;;;3.83;2.40;;;9.40;99.90;;;;;;5069074;28;21029;-68
2021/12/29 06:37:09;;;;;;;8.37;3.80;;;9.50;99.90;;;;;;5066767;28;20483;-68
2021/12/29 06:39:37;;;;;;;10.90;3.97;;;9.50;99.90;;;;;;5073985;28;20546;-69
2021/12/29 06:42:04;;;;;;;7.47;3.57;;;9.50;99.90;;;;;;5076958;28;20447;-70
2021/12/29 06:44:32;;;;;;;16.80;4.90;;;9.50;99.90;;;;;;5073379;28;20436;-69
2021/12/29 06:46:59;;;;;;;4.23;3.70;;;9.50;99.90;;;;;;5067600;28;20520;-68
2021/12/29 06:49:26;;;;;;;8.87;4.50;;;9.50;99.90;;;;;;5074577;28;20541;-68
2021/12/29 06:51:54;;;;;;;7.30;2.47;;;9.50;99.90;;;;;;5049203;28;20436;-68
2021/12/29 06:54:21;;;;;;;8.93;4.20;;;9.60;99.90;;;;;;5070628;28;20527;-70
2021/12/29 06:56:48;;;;;;;8.30;4.60;;;9.60;99.90;;;;;;5068621;28;20861;-69
2021/12/29 06:59:15;;;;;;;6.80;4.40;;;9.50;99.90;;;;;;5070166;28;20520;-68
2021/12/29 07:01:42;;;;;;;8.63;4.63;;;9.60;99.90;;;;;;5076323;28;20428;-69
2021/12/29 07:04:09;;;;;;;8.03;5.03;;;9.50;99.90;;;;;;5071952;28;20481;-67
2021/12/29 07:06:36;;;;;;;6.20;5.10;;;9.60;99.90;;;;;;5072790;28;20556;-68
2021/12/29 07:09:05;;;;;;;14.10;4.50;;;9.50;99.90;;;;;;5081234;28;20437;-68
2021/12/29 07:11:33;;;;;;;9.17;6.60;;;9.60;99.90;;;;;;5082357;28;20453;-69
2021/12/29 07:14:03;;;;;;;7.27;4.30;;;9.60;99.90;;;;;;5073129;28;20439;-67
2021/12/29 07:16:30;;;;;;;7.83;4.57;;;9.50;99.90;;;;;;5083701;28;20460;-67
2021/12/29 07:18:57;;;;;;;6.53;3.50;;;9.60;99.90;;;;;;5067378;28;20520;-68
2021/12/29 07:21:24;;;;;;;6.47;4.40;;;9.60;99.90;;;;;;5057258;28;20446;-68
2021/12/29 07:23:53;;;;;;;7.10;3.37;;;9.50;99.90;;;;;;5080738;28;20423;-68
2021/12/29 07:26:22;;;;;;;7.30;4.17;;;9.50;99.90;;;;;;5080206;28;20468;-68
2021/12/29 07:28:50;;;;;;;5.80;4.00;;;9.60;99.90;;;;;;5061043;28;20484;-69
2021/12/29 07:31:19;;;;;;;3.60;2.90;;;9.60;99.90;;;;;;5061401;28;20836;-68
2021/12/29 07:33:46;;;;;;;9.20;4.43;;;9.70;99.90;;;;;;5070893;28;20959;-69
2021/12/29 07:36:13;;;;;;;9.87;6.40;;;9.80;99.90;;;;;;5065161;28;20512;-70
2021/12/29 07:38:41;;;;;;;6.37;5.30;;;9.80;99.90;;;;;;5076389;28;20577;-69
2021/12/29 07:41:10;;;;;;;7.30;5.80;;;9.80;99.90;;;;;;5078558;28;20550;-68
2021/12/29 07:43:39;;;;;;;12.37;6.47;;;9.80;99.90;;;;;;5057161;28;20474;-69
2021/12/29 07:46:07;;;;;;;6.30;3.70;;;9.80;99.90;;;;;;5044692;28;20463;-70
2021/12/29 07:48:35;;;;;;;10.30;6.07;;;9.80;99.90;;;;;;5023562;28;23125;-69
2021/12/29 07:51:05;;;;;;;20.17;5.50;;;9.80;99.90;;;;;;5066968;28;20920;-69
2021/12/29 07:53:34;;;;;;;12.93;6.03;;;9.80;99.90;;;;;;5081591;28;20446;-69
2021/12/29 07:56:01;;;;;;;7.63;4.83;;;9.80;99.90;;;;;;5081623;28;20549;-69
2021/12/29 07:58:28;;;;;;;8.27;5.07;;;9.80;99.90;;;;;;5074938;28;20433;-69
2021/12/29 08:00:56;;;;;;;5.70;3.83;;;9.80;99.90;;;;;;5075400;28;20432;-68
2021/12/29 08:03:23;;;;;;;11.17;8.23;;;9.80;99.90;;;;;;5065047;28;20970;-69
2021/12/29 08:05:50;;;;;;;12.53;9.10;;;9.90;99.90;;;;;;5074238;28;21053;-70
2021/12/29 08:08:17;;;;;;;10.07;6.67;;;9.80;99.90;;;;;;5063208;28;20494;-69
2021/12/29 08:10:44;;;;;;;12.60;5.70;;;9.80;99.90;;;;;;5072697;28;20432;-69
2021/12/29 08:13:12;;;;;;;15.83;7.33;;;9.90;99.90;;;;;;5073264;28;20481;-67
2021/12/29 08:15:39;;;;;;;10.67;5.97;;;9.90;99.90;;;;;;5066632;28;20506;-67
2021/12/29 08:18:07;;;;;;;15.33;8.27;;;9.80;99.90;;;;;;5079350;28;20445;-67
2021/12/29 08:20:35;;;;;;;18.57;9.00;;;9.80;99.90;;;;;;5076949;28;20996;-70
2021/12/29 08:23:03;;;;;;;10.30;6.80;;;9.90;99.90;;;;;;5077638;28;20433;-69
2021/12/29 08:25:30;;;;;;;14.83;8.77;;;9.80;99.90;;;;;;5059432;28;20570;-69
2021/12/29 08:27:57;;;;;;;6.60;5.50;;;9.80;99.90;;;;;;5076013;28;20461;-69
2021/12/29 08:30:24;;;;;;;9.77;7.13;;;9.80;99.90;;;;;;5074989;28;20429;-69
2021/12/29 08:32:51;;;;;;;8.97;5.97;;;9.70;99.90;;;;;;5072323;28;20573;-69
2021/12/29 08:35:19;;;;;;;8.73;6.43;;;9.70;99.90;;;;;;5066726;28;20540;-68
2021/12/29 08:37:47;;;;;;;15.20;7.20;;;9.70;99.90;;;;;;5074027;28;20481;-69
2021/12/29 08:40:15;;;;;;;6.00;4.50;;;9.70;99.90;;;;;;5075210;28;20471;-70
2021/12/29 08:42:43;;;;;;;11.43;6.93;;;9.60;99.90;;;;;;5064532;28;20433;-68
2021/12/29 08:45:12;;;;;;;13.17;7.20;;;9.60;99.90;;;;;;5067765;28;21022;-66
2021/12/29 08:47:40;;;;;;;11.43;6.03;;;9.60;99.90;;;;;;5057539;28;20454;-67
2021/12/29 08:50:12;;;;;;;16.40;8.57;;;9.60;99.90;;;;;;5081846;28;20490;-68
2021/12/29 08:52:41;;;;;;;13.50;8.63;;;9.60;99.90;;;;;;5067434;28;20456;-67
2021/12/29 08:55:10;;;;;;;14.10;5.87;;;9.60;99.90;;;;;;5076207;28;20915;-68
2021/12/29 08:57:38;;;;;;;13.60;8.77;;;9.70;99.90;;;;;;5073295;28;20450;-68
2021/12/29 09:00:07;;;;;;;12.40;9.17;;;9.70;99.90;;;;;;5075277;28;20581;-68
2021/12/29 09:02:34;;;;;;;21.30;9.70;;;9.70;99.90;;;;;;5068375;28;20542;-68
2021/12/29 09:05:01;;;;;;;22.53;9.47;;;9.60;99.90;;;;;;5074004;28;20467;-67
2021/12/29 09:07:28;;;;;;;14.90;7.90;;;9.80;99.90;;;;;;5073714;28;20458;-67
2021/12/29 09:09:57;;;;;;;18.77;9.37;;;9.80;99.90;;;;;;5071938;28;20445;-71
2021/12/29 09:12:24;;;;;;;16.43;8.77;;;9.80;99.90;;;;;;5076433;28;20479;-69
2021/12/29 09:14:51;;;;;;;20.60;10.80;;;9.80;99.90;;;;;;5081679;28;20527;-69
2021/12/29 09:17:18;;;;;;;22.17;12.07;;;9.90;99.90;;;;;;5077100;28;20536;-70
2021/12/29 09:19:45;;;;;;;13.03;7.77;;;9.90;99.90;;;;;;5072609;28;20543;-69
2021/12/29 09:22:13;;;;;;;15.93;10.37;;;9.90;99.90;;;;;;5081911;28;20432;-68
2021/12/29 09:24:42;;;;;;;24.20;13.03;;;9.90;99.90;;;;;;5071623;28;20473;-69
2021/12/29 09:27:11;;;;;;;18.90;9.50;;;10.00;99.90;;;;;;5054259;28;21249;-67
2021/12/29 09:29:38;;;;;;;15.67;8.37;;;10.00;99.90;;;;;;5081940;28;20482;-68
2021/12/29 09:32:06;;;;;;;13.87;8.33;;;10.10;99.90;;;;;;5080765;28;20467;-68
2021/12/29 09:34:33;;;;;;;17.60;10.40;;;10.00;99.90;;;;;;5073103;28;21014;-68
2021/12/29 09:37:01;;;;;;;19.30;8.93;;;10.00;99.90;;;;;;5074818;28;20444;-68
2021/12/29 09:39:28;;;;;;;17.63;9.10;;;10.00;99.90;;;;;;5084328;28;21030;-68
2021/12/29 09:41:56;;;;;;;15.50;10.43;;;9.90;99.90;;;;;;5068851;28;20428;-68
2021/12/29 09:44:25;;;;;;;9.83;6.37;;;9.90;99.90;;;;;;5078630;28;20469;-66
2021/12/29 09:46:54;;;;;;;17.97;9.47;;;10.00;99.90;;;;;;5073915;28;20987;-69
2021/12/29 09:49:21;;;;;;;17.00;10.33;;;9.90;99.90;;;;;;5081592;28;20946;-69
2021/12/29 09:51:50;;;;;;;16.57;7.17;;;10.00;99.90;;;;;;5072999;28;20432;-69
2021/12/29 09:54:17;;;;;;;12.33;9.60;;;10.00;99.90;;;;;;5079839;28;20445;-69
2021/12/29 09:56:44;;;;;;;10.20;5.67;;;10.20;99.90;;;;;;5071259;28;21063;-69
2021/12/29 09:59:11;;;;;;;15.17;5.83;;;10.20;99.90;;;;;;5083161;28;20577;-69
2021/12/29 10:01:39;;;;;;;19.60;9.40;;;10.20;99.90;;;;;;5085559;28;20457;-70
2021/12/29 10:04:07;;;;;;;18.40;10.37;;;10.20;99.90;;;;;;5079623;28;20476;-69
2021/12/29 10:06:34;;;;;;;13.70;8.07;;;10.20;99.90;;;;;;5074488;28;20554;-68
2021/12/29 10:09:12;;;;;;;19.23;8.87;;;10.10;99.90;;;;;;5081733;28;20457;-69
2021/12/29 10:11:39;;;;;;;18.07;8.93;;;10.10;99.90;;;;;;5070646;28;20456;-68
2021/12/29 10:14:09;;;;;;;11.93;8.70;;;10.10;99.90;;;;;;5073836;28;20444;-69
2021/12/29 10:16:37;;;;;;;11.83;7.37;;;10.10;99.90;;;;;;5075474;28;20531;-67
2021/12/29 10:19:07;;;;;;;16.50;10.13;;;10.10;99.90;;;;;;5079678;28;20453;-70
2021/12/29 10:21:40;;;;;;;21.27;8.73;;;10.20;99.90;;;;;;5085729;28;20545;-68
2021/12/29 10:24:08;;;;;;;16.93;8.97;;;10.30;99.90;;;;;;5081259;28;20479;-69
2021/12/29 10:26:38;;;;;;;14.30;9.17;;;10.40;99.90;;;;;;5064668;28;20472;-71
2021/12/29 10:29:08;;;;;;;12.93;9.50;;;10.30;99.90;;;;;;5081102;28;20469;-70
2021/12/29 10:31:39;;;;;;;22.93;11.43;;;10.40;99.90;;;;;;5048024;28;20504;-70
2021/12/29 10:34:09;;;;;;;12.30;6.83;;;10.30;99.90;;;;;;5050775;28;20441;-68
2021/12/29 10:36:41;;;;;;;17.57;10.43;;;10.40;99.90;;;;;;5072740;28;20455;-68
2021/12/29 10:39:12;;;;;;;15.30;9.47;;;10.30;99.90;;;;;;5068426;28;20459;-69
2021/12/29 10:41:49;;;;;;;18.50;10.30;;;10.30;99.90;;;;;;5071637;28;20611;-69
2021/12/29 10:44:24;;;;;;;20.67;9.50;;;10.30;99.90;;;;;;5072833;28;20908;-70
2021/12/29 10:46:52;;;;;;;11.93;7.83;;;10.50;99.90;;;;;;5067436;28;20458;-69
2021/12/29 10:49:21;;;;;;;21.33;9.47;;;10.60;99.90;;;;;;5069553;28;20551;-69
2021/12/29 10:51:48;;;;;;;17.23;7.77;;;10.80;99.90;;;;;;5075937;28;20432;-68
2021/12/29 10:54:18;;;;;;;11.77;8.60;;;10.90;99.90;;;;;;5072065;28;20929;-66
2021/12/29 10:56:48;;;;;;;15.83;8.10;;;11.00;99.90;;;;;;5061038;28;21233;-67
2021/12/29 10:59:19;;;;;;;13.00;8.30;;;11.00;99.90;;;;;;5029336;28;20552;-68
2021/12/29 11:01:46;;;;;;;12.17;8.23;;;11.00;99.90;;;;;;5064731;28;20432;-67
2021/12/29 11:04:14;;;;;;;6.93;4.87;;;11.00;99.90;;;;;;5072920;28;20882;-70
2021/12/29 11:06:46;;;;;;;13.13;7.73;;;10.90;99.90;;;;;;5070196;28;20452;-70
2021/12/29 11:09:15;;;;;;;12.50;7.53;;;10.90;99.90;;;;;;5070470;28;20446;-68
2021/12/29 11:11:45;;;;;;;10.33;6.73;;;10.90;99.90;;;;;;5056029;28;20529;-69
2021/12/29 11:14:14;;;;;;;16.30;7.77;;;11.00;99.90;;;;;;5068406;28;20806;-69
2021/12/29 11:16:42;;;;;;;8.87;6.10;;;11.00;99.90;;;;;;5067212;28;20569;-68
2021/12/29 11:19:11;;;;;;;16.40;7.90;;;11.10;99.90;;;;;;5070381;28;20485;-68
2021/12/29 11:21:40;;;;;;;11.97;6.57;;;11.00;99.90;;;;;;5061016;28;20973;-68
2021/12/29 11:24:20;;;;;;;16.20;8.57;;;11.00;99.90;;;;;;5066801;28;20460;-67
2021/12/29 11:26:49;;;;;;;9.40;6.67;;;11.00;99.90;;;;;;5056422;28;20605;-70
2021/12/29 11:29:20;;;;;;;11.67;7.90;;;11.00;99.90;;;;;;5036177;28;20432;-69
2021/12/29 11:31:52;;;;;;;11.03;8.00;;;11.10;99.90;;;;;;5041121;28;20438;-70
2021/12/29 11:34:24;;;;;;;8.13;5.07;;;11.20;99.90;;;;;;5055106;28;20461;-68
2021/12/29 11:37:05;;;;;;;12.10;5.97;;;11.00;99.90;;;;;;5054467;28;20477;-69
2021/12/29 11:39:36;;;;;;;12.60;5.80;;;11.10;99.90;;;;;;5058382;28;20450;-67
2021/12/29 11:42:04;;;;;;;23.23;7.07;;;11.10;99.90;;;;;;5067354;28;20431;-68
2021/12/29 11:44:31;;;;;;;21.20;7.07;;;11.10;99.90;;;;;;5067102;28;20503;-67
2021/12/29 11:46:59;;;;;;;11.90;6.70;;;11.10;99.90;;;;;;5055379;28;21056;-67
2021/12/29 11:49:26;;;;;;;10.43;6.90;;;11.20;99.90;;;;;;5066557;28;20613;-69
2021/12/29 11:52:06;;;;;;;12.23;7.27;;;11.20;99.90;;;;;;5076851;28;20601;-66
2021/12/29 11:54:48;;;;;;;10.07;6.43;;;11.10;99.90;;;;;;5071271;28;20585;-67
2021/12/29 11:57:18;;;;;;;11.00;5.83;;;11.10;99.90;;;;;;5053810;28;20493;-67
2021/12/29 11:59:45;;;;;;;13.30;6.13;;;11.00;99.90;;;;;;5069363;28;20432;-68
2021/12/29 12:02:23;;;;;;;8.63;5.57;;;11.00;99.90;;;;;;5060389;28;20436;-68
2021/12/29 12:05:00;;;;;;;6.47;4.60;;;11.10;99.90;;;;;;5057770;28;20904;-68
2021/12/29 12:07:27;;;;;;;10.50;5.57;;;11.10;99.90;;;;;;5049056;28;22762;-67
2021/12/29 12:09:57;;;;;;;4.57;4.13;;;11.10;99.90;;;;;;5049241;28;20438;-67
2021/12/29 12:12:35;;;;;;;7.90;4.77;;;11.20;99.90;;;;;;5048878;28;20941;-69
2021/12/29 12:15:03;;;;;;;9.30;6.13;;;11.20;99.90;;;;;;5052880;28;20443;-68
2021/12/29 12:17:31;;;;;;;9.47;5.83;;;11.20;99.90;;;;;;5054757;28;20472;-68
2021/12/29 12:20:03;;;;;;;9.07;4.80;;;11.40;99.90;;;;;;5062893;28;20447;-67
2021/12/29 12:22:40;;;;;;;9.47;5.20;;;11.50;99.90;;;;;;5054860;28;20464;-66
2021/12/29 12:25:10;;;;;;;5.93;5.30;;;11.50;99.90;;;;;;5051645;28;22249;-69
2021/12/29 12:27:40;;;;;;;6.53;5.37;;;11.50;99.90;;;;;;5061070;28;20831;-70
2021/12/29 12:30:10;;;;;;;5.53;5.00;;;11.60;99.90;;;;;;5068676;28;20462;-68
2021/12/29 12:32:46;;;;;;;8.90;3.60;;;11.50;99.90;;;;;;5055209;28;20464;-69
2021/12/29 12:35:15;;;;;;;7.53;4.30;;;11.40;99.90;;;;;;5063632;28;20439;-68
2021/12/29 12:37:45;;;;;;;7.63;4.77;;;11.30;99.90;;;;;;5068843;28;20491;-67
2021/12/29 12:40:22;;;;;;;10.30;5.13;;;11.30;99.90;;;;;;5065520;28;21286;-68
2021/12/29 12:42:59;;;;;;;7.10;4.50;;;11.30;99.90;;;;;;5068102;28;20541;-70
2021/12/29 12:45:31;;;;;;;7.40;5.10;;;11.20;99.90;;;;;;5054321;28;20546;-68
2021/12/29 12:48:05;;;;;;;12.63;7.77;;;11.10;99.90;;;;;;5053986;28;21007;-67
2021/12/29 12:50:32;;;;;;;6.37;5.13;;;11.10;99.90;;;;;;5060551;28;20475;-68
2021/12/29 12:52:59;;;;;;;6.30;4.33;;;11.00;99.90;;;;;;5071445;28;20501;-68
2021/12/29 12:55:32;;;;;;;3.97;3.43;;;11.00;99.90;;;;;;5058440;28;20588;-68
2021/12/29 12:58:09;;;;;;;8.00;4.93;;;10.90;99.90;;;;;;5065852;28;20439;-68